Time;durP1;ratioP1;P1;durP2;ratioP2;P2;SDS_P1;SDS_P2;PMS_P1;PMS_P2;Temp;Humidity;BMP_temperature;BMP_pressure;BME280_temperature;BME280_humidity;BME280_pressure;Samples;Min_cycle;Max_cycle;Signal;HPM_P1;HPM_P2
2023/05/05 00:04:56;;;;;;;0.00;0.00;;;;;;;-145.06;85.14;94250.72;10427235;28;20090;-75
2023/05/05 00:09:56;;;;;;;0.00;0.00;;;;;;;-145.06;85.85;94254.81;10422598;28;20036;-75
2023/05/05 00:14:57;;;;;;;0.00;0.00;;;;;;;-145.06;87.30;94297.78;10420010;28;20021;-76
2023/05/05 00:19:58;;;;;;;0.00;0.00;;;;;;;-145.06;89.10;94312.09;10417472;28;20043;-76
2023/05/05 00:24:58;;;;;;;0.00;0.00;;;;;;;-145.06;89.39;94308.00;10422836;28;20067;-75
2023/05/05 00:29:59;;;;;;;0.10;0.10;;;;;;;-145.06;89.33;94324.38;10410658;28;20361;-75
2023/05/05 00:34:59;;;;;;;0.00;0.00;;;;;;;-145.06;89.26;94299.81;10421107;28;20022;-76
2023/05/05 00:39:59;;;;;;;0.00;0.00;;;;;;;-145.06;89.05;94318.25;10414885;28;20017;-76
2023/05/05 00:45:00;;;;;;;0.00;0.00;;;;;;;-145.06;88.76;94303.91;10421270;28;20370;-76
2023/05/05 00:50:01;;;;;;;0.00;0.00;;;;;;;-145.06;89.56;94312.09;10431312;28;20021;-75
2023/05/05 00:55:03;;;;;;;0.00;0.00;;;;;;;-145.06;88.85;94316.19;10429815;28;20022;-76
2023/05/05 01:00:04;;;;;;;0.00;0.00;;;;;;;-145.06;88.31;94316.19;10429386;28;20494;-75
2023/05/05 01:05:09;;;;;;;0.00;0.00;;;;;;;-145.06;88.21;94291.66;10419899;28;20028;-76
2023/05/05 01:10:24;;;;;;;0.00;0.00;;;;;;;-145.06;88.98;94308.00;10422230;28;20029;-76
2023/05/05 01:15:41;;;;;;;0.10;0.10;;;;;;;-145.06;88.73;94303.91;10440610;22;20038;-75
2023/05/05 01:21:00;;;;;;;0.00;0.00;;;;;;;-145.06;89.86;94338.69;10386003;28;20034;-75
2023/05/05 01:26:34;;;;;;;0.00;0.00;;;;;;;-145.06;90.16;94344.84;10378085;28;20068;-75
2023/05/05 01:31:50;;;;;;;0.00;0.00;;;;;;;-145.06;89.86;94310.06;10357778;28;20489;-75
2023/05/05 01:37:10;;;;;;;0.00;0.00;;;;;;;-145.06;91.47;94291.66;10359748;28;20022;-75
2023/05/05 01:42:13;;;;;;;0.00;0.00;;;;;;;-145.06;92.05;94320.28;10359931;28;20474;-75
2023/05/05 01:47:17;;;;;;;0.00;0.00;;;;;;;-145.06;93.39;94334.59;10368696;28;20037;-75
2023/05/05 01:52:19;;;;;;;0.08;0.08;;;;;;;-145.06;92.47;94316.19;10347981;28;20021;-75
2023/05/05 01:57:21;;;;;;;0.00;0.00;;;;;;;-145.06;92.96;94328.47;10358716;28;20036;-76
2023/05/05 02:02:24;;;;;;;0.00;0.00;;;;;;;-145.06;93.76;94348.94;10358555;28;20029;-75
2023/05/05 02:07:26;;;;;;;0.00;0.00;;;;;;;-145.06;95.12;94361.19;10357483;28;20026;-75
2023/05/05 02:12:29;;;;;;;0.00;0.00;;;;;;;-145.06;95.92;94318.25;10344813;28;20018;-75
2023/05/05 02:17:30;;;;;;;0.00;0.00;;;;;;;-145.06;97.10;94369.38;10353307;28;20029;-75
2023/05/05 02:22:31;;;;;;;0.00;0.00;;;;;;;-145.06;97.85;94338.69;10343248;28;20489;-75
2023/05/05 02:27:34;;;;;;;0.00;0.00;;;;;;;-145.06;98.73;94414.38;10358986;28;20056;-75
2023/05/05 02:32:41;;;;;;;0.00;0.00;;;;;;;-145.06;99.38;94363.25;10350855;28;20042;-75
2023/05/05 02:37:55;;;;;;;0.00;0.00;;;;;;;-145.06;98.99;94395.97;10353261;28;20121;-76
2023/05/05 02:42:58;;;;;;;0.00;0.00;;;;;;;-145.06;100.00;94365.28;10355237;28;20139;-76
2023/05/05 02:48:05;;;;;;;0.00;0.00;;;;;;;-145.06;100.00;94379.59;10352547;28;20038;-75
2023/05/05 02:53:06;;;;;;;0.00;0.00;;;;;;;-145.06;100.00;94383.69;10355497;28;20030;-75
2023/05/05 02:58:15;;;;;;;0.00;0.00;;;;;;;-145.06;100.00;94393.94;10356609;28;20018;-75
2023/05/05 03:03:35;;;;;;;0.00;0.00;;;;;;;-145.06;100.00;94398.03;10352527;28;20026;-75
2023/05/05 03:08:52;;;;;;;0.00;0.00;;;;;;;-145.06;100.00;94430.75;10372683;28;20037;-75
2023/05/05 03:14:09;;;;;;;0.00;0.00;;;;;;;-145.06;100.00;94434.84;10351059;28;20053;-77
2023/05/05 03:19:11;;;;;;;0.00;0.00;;;;;;;-145.06;100.00;94391.88;10351841;28;20022;-75
2023/05/05 03:24:17;;;;;;;0.00;0.00;;;;;;;-145.06;100.00;94393.94;10355342;28;20018;-75
2023/05/05 03:29:17;;;;;;;0.00;0.00;;;;;;;-145.06;100.00;94400.06;10362220;28;20507;-75
2023/05/05 03:34:17;;;;;;;0.00;0.00;;;;;;;-145.06;100.00;94385.75;10351736;28;20029;-76
2023/05/05 03:39:18;;;;;;;0.00;0.00;;;;;;;-145.06;100.00;94434.84;10349393;28;20052;-76
2023/05/05 03:44:18;;;;;;;0.00;0.00;;;;;;;-145.06;100.00;94406.19;10345361;28;20425;-76
2023/05/05 03:49:18;;;;;;;0.00;0.00;;;;;;;-145.06;100.00;94508.50;10345634;28;20030;-76
2023/05/05 03:54:19;;;;;;;0.00;0.00;;;;;;;-145.06;100.00;94391.88;10355932;28;20026;-76
2023/05/05 03:59:19;;;;;;;0.00;0.00;;;;;;;-145.06;100.00;94410.28;10358257;28;20100;-76
2023/05/05 04:04:20;;;;;;;0.00;0.00;;;;;;;-145.06;100.00;94334.59;10324141;28;20078;-76
2023/05/05 04:09:20;;;;;;;0.00;0.00;;;;;;;-145.06;100.00;93853.88;10349200;28;20044;-76
2023/05/05 04:14:21;;;;;;;0.00;0.00;;;;;;;-145.06;100.00;94080.94;10339152;28;20102;-76
2023/05/05 04:19:21;;;;;;;0.00;0.00;;;;;;;-145.06;100.00;93737.28;10349539;28;20319;-75
2023/05/05 04:24:23;;;;;;;0.00;0.00;;;;;;;-145.06;100.00;93563.44;10360750;28;20037;-76
2023/05/05 04:29:23;;;;;;;0.00;0.00;;;;;;;-145.06;100.00;93473.44;10349035;28;20026;-76
2023/05/05 04:34:24;;;;;;;0.00;0.00;;;;;;;-145.06;100.00;93579.81;10351528;28;20014;-75
2023/05/05 04:39:24;;;;;;;0.00;0.00;;;;;;;-145.06;100.00;93197.34;10352835;28;20422;-75
2023/05/05 04:44:24;;;;;;;0.00;0.00;;;;;;;-145.06;100.00;93266.88;10350963;28;20055;-75
2023/05/05 04:49:25;;;;;;;0.00;0.00;;;;;;;-145.06;100.00;93001.00;10355320;28;20030;-76
2023/05/05 04:54:25;;;;;;;0.00;0.00;;;;;;;-145.06;100.00;92906.94;10356572;28;20022;-76
2023/05/05 04:59:26;;;;;;;0.00;0.00;;;;;;;-145.06;100.00;93060.31;10357284;28;20105;-76
2023/05/05 05:04:26;;;;;;;0.00;0.00;;;;;;;-145.06;100.00;93158.47;10352028;28;20274;-76
2023/05/05 05:09:26;;;;;;;0.00;0.00;;;;;;;-145.06;100.00;93383.44;10351260;28;20034;-76
2023/05/05 05:14:27;;;;;;;0.00;0.00;;;;;;;-145.06;100.00;93256.66;10335670;28;20018;-76
2023/05/05 05:19:27;;;;;;;0.00;0.00;;;;;;;-145.06;100.00;93305.72;10352506;28;20176;-76
2023/05/05 05:24:28;;;;;;;0.10;0.10;;;;;;;-145.06;100.00;93021.47;10348826;28;20018;-77
2023/05/05 05:29:29;;;;;;;0.00;0.00;;;;;;;-145.06;100.00;92945.78;10347232;28;20060;-75
2023/05/05 05:34:29;;;;;;;0.00;0.00;;;;;;;-145.06;96.47;92587.94;10349133;28;20020;-75
2023/05/05 05:39:29;;;;;;;0.00;0.00;;;;;;;-145.06;87.79;92489.78;10352867;28;20029;-75
2023/05/05 05:44:30;;;;;;;0.10;0.10;;;;;;;-145.06;82.91;92444.78;10357654;28;20342;-75
2023/05/05 05:49:30;;;;;;;0.10;0.10;;;;;;;-145.06;80.08;92375.28;10343395;28;20037;-76
2023/05/05 05:54:33;;;;;;;0.10;0.10;;;;;;;-145.06;74.84;92332.31;10352660;28;20021;-75
2023/05/05 05:59:33;;;;;;;0.10;0.10;;;;;;;-145.06;70.70;92178.97;10341977;28;20225;-75
2023/05/05 06:04:33;;;;;;;0.10;0.10;;;;;;;-145.06;70.58;92338.47;10350624;28;20437;-76
2023/05/05 06:09:34;;;;;;;0.10;0.10;;;;;;;-145.06;73.92;92696.31;10347019;28;20037;-75
2023/05/05 06:14:35;;;;;;;0.10;0.10;;;;;;;-145.06;81.66;92786.28;10347657;28;20017;-76
2023/05/05 06:19:38;;;;;;;0.10;0.10;;;;;;;-145.06;77.80;92448.88;10351927;28;20792;-75
2023/05/05 06:24:38;;;;;;;0.10;0.10;;;;;;;-145.06;75.68;92377.31;10350662;28;20200;-75
2023/05/05 06:29:39;;;;;;;0.10;0.10;;;;;;;-145.06;73.01;92369.13;10352171;28;20493;-75
2023/05/05 06:34:39;;;;;;;0.00;0.00;;;;;;;-145.06;72.83;92332.31;10353837;28;20022;-75
2023/05/05 06:39:40;;;;;;;0.10;0.10;;;;;;;-145.06;70.17;92326.19;10346814;28;20059;-76
2023/05/05 06:44:40;;;;;;;0.10;0.10;;;;;;;-145.06;69.20;92835.38;10355755;28;20022;-76
2023/05/05 06:49:41;;;;;;;0.00;0.00;;;;;;;-145.06;71.71;92538.84;10356258;28;20034;-75
2023/05/05 06:54:42;;;;;;;0.10;0.10;;;;;;;-145.06;75.45;93013.28;10338863;28;20030;-76
2023/05/05 06:59:42;;;;;;;0.10;0.10;;;;;;;-145.06;77.40;93109.41;10342803;28;20080;-76
2023/05/05 07:04:43;;;;;;;0.10;0.10;;;;;;;-145.06;79.92;93099.16;10349456;28;20358;-76
2023/05/05 07:09:43;;;;;;;0.10;0.10;;;;;;;-145.06;83.25;93236.19;10340523;28;20476;-75
2023/05/05 07:14:45;;;;;;;0.10;0.10;;;;;;;-145.06;83.13;93187.13;10331280;28;20019;-76
2023/05/05 07:19:45;;;;;;;0.10;0.10;;;;;;;-145.06;85.32;93199.38;10369270;23;20501;-77
2023/05/05 07:24:46;;;;;;;0.10;0.10;;;;;;;-145.06;83.17;93148.25;10343424;28;20031;-77
2023/05/05 07:29:46;;;;;;;0.00;0.00;;;;;;;-145.06;82.04;93207.56;10331118;28;20590;-76
2023/05/05 07:34:46;;;;;;;0.10;0.10;;;;;;;-145.06;82.57;93205.53;10340287;28;20109;-75
2023/05/05 07:39:47;;;;;;;0.10;0.10;;;;;;;-145.06;82.97;93185.06;10333028;28;20442;-77
2023/05/05 07:44:47;;;;;;;0.10;0.10;;;;;;;-145.06;81.32;93121.66;10329450;28;20485;-76
2023/05/05 07:49:48;;;;;;;0.00;0.00;;;;;;;-145.06;81.90;93150.31;10326600;28;20045;-76
2023/05/05 07:54:48;;;;;;;0.10;0.10;;;;;;;-145.06;82.93;93166.66;10339897;28;20100;-76
2023/05/05 07:59:48;;;;;;;0.10;0.10;;;;;;;-145.06;81.49;93076.69;10338084;28;20032;-76
2023/05/05 08:04:49;;;;;;;0.05;0.05;;;;;;;-145.06;79.67;92970.34;10342004;28;20057;-76
2023/05/05 08:09:49;;;;;;;0.00;0.00;;;;;;;-145.06;75.23;92927.38;10323544;28;20030;-76
2023/05/05 08:14:49;;;;;;;0.10;0.10;;;;;;;-145.06;75.13;92706.53;10339879;28;20096;-76
2023/05/05 08:19:53;;;;;;;0.10;0.10;;;;;;;-145.06;73.13;92911.03;10330817;28;20429;-77
2023/05/05 08:24:53;;;;;;;0.10;0.10;;;;;;;-145.06;70.25;92904.88;10345061;28;20289;-76
2023/05/05 08:29:53;;;;;;;0.10;0.10;;;;;;;-145.06;74.15;92943.75;10327211;28;20034;-76
2023/05/05 08:34:54;;;;;;;0.10;0.10;;;;;;;-145.06;70.96;92686.09;10331517;28;20485;-76
2023/05/05 08:39:56;;;;;;;0.00;0.00;;;;;;;-145.06;69.35;92778.09;10338054;28;20038;-75
2023/05/05 08:44:57;;;;;;;0.10;0.10;;;;;;;-145.06;70.02;92915.13;10313478;28;20022;-76
2023/05/05 08:49:58;;;;;;;0.10;0.10;;;;;;;-145.06;71.87;92929.44;10347692;28;20401;-76
2023/05/05 08:55:13;;;;;;;0.10;0.10;;;;;;;-145.06;70.42;92884.44;10341839;28;20370;-75
2023/05/05 09:00:15;;;;;;;0.10;0.10;;;;;;;-145.06;68.80;92949.88;10350370;28;20019;-76
2023/05/05 09:05:15;;;;;;;0.10;0.10;;;;;;;-145.06;70.49;93019.41;10343893;28;20161;-75
2023/05/05 09:10:16;;;;;;;0.10;0.10;;;;;;;-145.06;69.40;92782.19;10352554;28;20029;-76
2023/05/05 09:15:17;;;;;;;0.10;0.10;;;;;;;-145.06;68.55;92835.38;10349127;28;20018;-76
2023/05/05 09:20:17;;;;;;;0.03;0.03;;;;;;;-145.06;66.91;92868.09;10340556;28;20472;-75
2023/05/05 09:25:18;;;;;;;0.10;0.10;;;;;;;-145.06;65.34;92861.94;10338291;28;20039;-76
2023/05/05 09:30:25;;;;;;;0.10;0.10;;;;;;;-145.06;66.31;92990.78;10353413;28;20049;-75
2023/05/05 09:35:26;;;;;;;0.10;0.10;;;;;;;-145.06;66.96;93068.50;10341974;28;20046;-76
2023/05/05 09:40:42;;;;;;;0.10;0.10;;;;;;;-145.06;67.43;93084.84;10339827;28;20030;-76
2023/05/05 09:45:43;;;;;;;0.10;0.10;;;;;;;-145.06;68.78;93074.63;10340668;28;20504;-75
2023/05/05 09:50:44;;;;;;;0.10;0.10;;;;;;;-145.06;69.49;93180.97;10315990;28;20023;-76
2023/05/05 09:55:55;;;;;;;0.10;0.10;;;;;;;-145.06;69.87;93252.56;10340511;28;20092;-76
2023/05/05 10:00:57;;;;;;;0.00;0.00;;;;;;;-145.06;71.23;93236.19;10346810;28;20023;-75
2023/05/05 10:05:59;;;;;;;0.10;0.10;;;;;;;-145.06;70.66;93201.44;10346592;28;20031;-76
2023/05/05 10:11:05;;;;;;;0.10;0.10;;;;;;;-145.06;69.81;93205.53;10336663;28;20060;-76
2023/05/05 10:16:08;;;;;;;0.10;0.10;;;;;;;-145.06;71.20;93187.13;10311564;28;20034;-76
2023/05/05 10:21:10;;;;;;;0.10;0.10;;;;;;;-145.06;69.32;93146.22;10319953;28;20061;-75
2023/05/05 10:26:13;;;;;;;0.10;0.10;;;;;;;-145.06;67.93;93125.75;10354036;28;20022;-76
2023/05/05 10:31:28;;;;;;;0.10;0.10;;;;;;;-145.06;67.88;93148.25;10326023;28;20321;-75
2023/05/05 10:36:30;;;;;;;0.10;0.10;;;;;;;-145.06;68.05;93031.69;10340061;28;20019;-76
2023/05/05 10:41:31;;;;;;;0.10;0.10;;;;;;;-145.06;66.73;92933.53;10333215;28;20076;-76
2023/05/05 10:46:32;;;;;;;0.10;0.10;;;;;;;-145.06;65.16;92864.00;10334707;28;20501;-76
2023/05/05 10:51:55;;;;;;;0.10;0.10;;;;;;;-145.06;65.05;92870.13;10349440;28;20024;-75
2023/05/05 10:57:00;;;;;;;0.10;0.10;;;;;;;-145.06;63.99;92849.69;10351022;28;20033;-76
2023/05/05 11:02:00;;;;;;;0.10;0.10;;;;;;;-145.06;62.34;92868.09;10328787;28;20542;-76
2023/05/05 11:07:25;;;;;;;0.10;0.10;;;;;;;-145.06;62.39;92827.19;10336802;28;20018;-76
2023/05/05 11:12:27;;;;;;;0.00;0.00;;;;;;;-145.06;61.38;92798.56;10326765;28;20050;-75
2023/05/05 11:17:46;;;;;;;0.10;0.10;;;;;;;-145.06;60.63;92786.28;10333460;28;20038;-75
2023/05/05 11:23:19;;;;;;;0.10;0.10;;;;;;;-145.06;59.11;92788.31;10342529;28;20027;-77
2023/05/05 11:28:23;;;;;;;0.10;0.10;;;;;;;-145.06;60.31;92874.22;10325633;28;20485;-77
2023/05/05 11:33:24;;;;;;;0.00;0.00;;;;;;;-145.06;60.40;92892.63;10333325;28;20073;-77
2023/05/05 11:38:44;;;;;;;0.10;0.10;;;;;;;-145.06;59.07;92951.94;10338130;28;20365;-75
2023/05/05 11:43:45;;;;;;;0.08;0.08;;;;;;;-145.06;59.59;92878.31;10330227;28;20022;-75
2023/05/05 11:48:51;;;;;;;0.10;0.10;;;;;;;-145.06;58.92;92851.72;10327253;28;20056;-75
2023/05/05 11:53:52;;;;;;;0.00;0.00;;;;;;;-145.06;59.11;92788.31;10350621;28;20269;-76
2023/05/05 11:59:09;;;;;;;0.10;0.10;;;;;;;-145.06;59.88;92771.97;10355777;28;20026;-75
2023/05/05 12:04:14;;;;;;;0.10;0.10;;;;;;;-145.06;57.24;92647.22;10334198;28;20813;-76
2023/05/05 12:09:20;;;;;;;0.10;0.10;;;;;;;-145.06;56.04;92712.66;10353945;28;20026;-76
2023/05/05 12:14:21;;;;;;;0.00;0.00;;;;;;;-145.06;54.56;92477.50;10342529;28;20540;-77
2023/05/05 12:19:21;;;;;;;0.10;0.10;;;;;;;-145.06;53.38;92512.28;10340278;28;20023;-76
2023/05/05 12:24:22;;;;;;;0.08;0.08;;;;;;;-145.06;51.72;92436.63;10313582;28;20022;-77
2023/05/05 12:29:24;;;;;;;0.00;0.00;;;;;;;-145.06;51.89;92528.63;10339654;28;20537;-77
2023/05/05 12:34:25;;;;;;;0.10;0.10;;;;;;;-145.06;52.38;92679.94;10319523;28;20293;-77
2023/05/05 12:39:37;;;;;;;0.10;0.10;;;;;;;-145.06;51.21;92682.00;10332700;28;20027;-76
2023/05/05 12:44:39;;;;;;;0.10;0.10;;;;;;;-145.06;52.60;92755.59;10330158;28;20393;-77
2023/05/05 12:49:49;;;;;;;0.10;0.10;;;;;;;-145.06;53.71;92771.97;10342837;28;20433;-76
2023/05/05 12:54:59;;;;;;;0.10;0.10;;;;;;;-145.06;53.42;92606.34;10361171;28;20026;-76
2023/05/05 13:00:11;;;;;;;0.00;0.00;;;;;;;-145.06;53.03;92598.16;10359476;28;20033;-76
2023/05/05 13:05:11;;;;;;;0.10;0.10;;;;;;;-145.06;53.33;92620.66;10356224;28;20030;-76
2023/05/05 13:10:12;;;;;;;0.10;0.10;;;;;;;-145.06;53.29;92637.00;10325274;28;20500;-76
2023/05/05 13:15:12;;;;;;;0.00;0.00;;;;;;;-145.06;52.42;92534.75;10340776;28;20021;-76
2023/05/05 13:20:13;;;;;;;0.10;0.10;;;;;;;-145.06;52.62;92675.84;10351630;28;20277;-75
2023/05/05 13:25:13;;;;;;;0.08;0.08;;;;;;;-145.06;53.24;92726.97;10339767;28;20028;-75
2023/05/05 13:30:13;;;;;;;0.10;0.10;;;;;;;-145.06;54.67;92655.41;10341283;28;20150;-77
2023/05/05 13:35:14;;;;;;;0.00;0.00;;;;;;;-145.06;53.42;92694.25;10328549;28;20045;-76
2023/05/05 13:40:14;;;;;;;0.00;0.00;;;;;;;-145.06;53.81;92739.25;10339269;28;20034;-76
2023/05/05 13:45:16;;;;;;;0.00;0.00;;;;;;;-145.06;53.37;92696.31;10346858;28;20026;-76
2023/05/05 13:50:16;;;;;;;0.10;0.10;;;;;;;-145.06;53.82;92571.56;10337607;28;20033;-76
2023/05/05 13:55:17;;;;;;;0.00;0.00;;;;;;;-145.06;53.34;92630.88;10324101;28;20029;-76
2023/05/05 14:00:17;;;;;;;0.00;0.00;;;;;;;-145.06;53.81;92637.00;10334267;28;20029;-77
2023/05/05 14:05:19;;;;;;;0.10;0.10;;;;;;;-145.06;54.79;92729.03;10356445;28;20033;-77
2023/05/05 14:10:19;;;;;;;0.00;0.00;;;;;;;-145.06;55.40;92755.59;10313180;28;20124;-76
2023/05/05 14:15:20;;;;;;;0.03;0.03;;;;;;;-145.06;55.77;92733.13;10330697;28;20473;-76
2023/05/05 14:20:20;;;;;;;0.10;0.10;;;;;;;-145.06;56.99;92692.22;10325913;28;20041;-76
2023/05/05 14:25:20;;;;;;;0.10;0.10;;;;;;;-145.06;55.88;92684.03;10335503;28;20026;-77
2023/05/05 14:30:21;;;;;;;0.10;0.10;;;;;;;-145.06;56.62;92786.28;10323886;28;20362;-76
2023/05/05 14:35:21;;;;;;;0.10;0.10;;;;;;;-145.06;57.20;92861.94;10344944;28;20053;-76
2023/05/05 14:40:21;;;;;;;0.10;0.10;;;;;;;-145.06;57.95;92904.88;10345092;28;20023;-76
2023/05/05 14:45:22;;;;;;;0.10;0.10;;;;;;;-145.06;59.80;92917.16;10338210;28;20026;-77
2023/05/05 14:50:22;;;;;;;0.10;0.10;;;;;;;-145.06;59.31;92937.63;10360957;28;20319;-75
2023/05/05 14:55:23;;;;;;;0.10;0.10;;;;;;;-145.06;61.21;92982.59;10324873;28;20486;-75
2023/05/05 15:00:25;;;;;;;0.10;0.10;;;;;;;-145.06;60.85;93015.31;10349772;28;20072;-75
2023/05/05 15:05:25;;;;;;;0.10;0.10;;;;;;;-145.06;61.45;92998.97;10339826;28;20037;-75
2023/05/05 15:10:26;;;;;;;0.00;0.00;;;;;;;-145.06;62.52;92872.16;10344459;28;20109;-76
2023/05/05 15:15:26;;;;;;;0.00;0.00;;;;;;;-145.06;62.03;92896.72;10335238;28;20345;-76
2023/05/05 15:20:27;;;;;;;0.10;0.10;;;;;;;-145.06;64.88;92978.50;10340037;28;20073;-76
2023/05/05 15:25:27;;;;;;;0.10;0.10;;;;;;;-145.06;66.15;93039.88;10321877;28;20030;-76
2023/05/05 15:30:27;;;;;;;0.17;0.17;;;;;;;-145.06;68.00;93076.69;10350085;28;20033;-77
2023/05/05 15:35:28;;;;;;;0.10;0.10;;;;;;;-145.06;69.74;93140.06;10331916;28;20262;-77
2023/05/05 15:40:28;;;;;;;0.10;0.10;;;;;;;-145.06;69.29;93201.44;10335293;28;20043;-76
2023/05/05 15:45:28;;;;;;;0.10;0.10;;;;;;;-145.06;70.53;93078.72;10304281;28;20026;-76
2023/05/05 15:50:29;;;;;;;0.10;0.10;;;;;;;-145.06;71.56;93107.34;10341789;28;20265;-75
2023/05/05 15:55:29;;;;;;;0.00;0.00;;;;;;;-145.06;71.57;93295.50;10318589;28;20034;-77
2023/05/05 16:00:30;;;;;;;0.10;0.10;;;;;;;-145.06;71.70;93289.38;10322647;28;20022;-76
2023/05/05 16:05:30;;;;;;;0.10;0.10;;;;;;;-145.06;73.86;93610.47;10309795;28;20045;-76
2023/05/05 16:10:30;;;;;;;0.10;0.10;;;;;;;-145.06;74.10;93690.25;10345570;28;20023;-76
2023/05/05 16:15:31;;;;;;;0.10;0.10;;;;;;;-145.06;74.27;93647.28;10322198;28;20113;-77
2023/05/05 16:20:31;;;;;;;0.00;0.00;;;;;;;-145.06;75.17;93947.97;10299777;28;20022;-77
2023/05/05 16:25:31;;;;;;;0.10;0.10;;;;;;;-145.06;75.28;94040.03;10324687;28;20026;-77
2023/05/05 16:30:32;;;;;;;0.10;0.10;;;;;;;-145.06;76.16;94062.53;10329977;28;20024;-75
2023/05/05 16:35:32;;;;;;;0.05;0.05;;;;;;;-145.06;76.70;94136.16;10319909;28;20018;-76
2023/05/05 16:40:35;;;;;;;0.10;0.10;;;;;;;-145.06;77.60;94093.22;10350497;28;20397;-77
2023/05/05 16:45:35;;;;;;;0.10;0.10;;;;;;;-145.06;78.43;94128.00;10351767;28;20116;-77
2023/05/05 16:50:36;;;;;;;0.47;0.30;;;;;;;-145.06;79.45;94148.44;10351356;28;20544;-76
2023/05/05 16:55:36;;;;;;;0.10;0.10;;;;;;;-145.06;79.75;94138.22;10348541;28;20110;-77
2023/05/05 17:00:36;;;;;;;0.20;0.20;;;;;;;-145.06;80.31;94144.34;10334220;28;20085;-77
2023/05/05 17:05:37;;;;;;;0.10;0.10;;;;;;;-145.06;81.38;94156.63;10347194;28;20034;-76
2023/05/05 17:10:37;;;;;;;0.00;0.00;;;;;;;-145.06;81.33;94144.34;10353031;28;20021;-76
2023/05/05 17:15:37;;;;;;;0.10;0.10;;;;;;;-145.06;82.64;94152.53;10351109;28;20026;-77
2023/05/05 17:20:37;;;;;;;0.10;0.10;;;;;;;-145.06;84.59;94213.91;10350198;28;20133;-76
2023/05/05 17:25:38;;;;;;;0.10;0.10;;;;;;;-145.06;89.96;94201.63;10319324;28;20026;-77
2023/05/05 17:30:38;;;;;;;0.10;0.10;;;;;;;-145.06;94.08;94250.72;10371790;28;20125;-76
2023/05/05 17:35:38;;;;;;;0.10;0.10;;;;;;;-145.06;95.28;94240.50;10342099;28;20014;-76
2023/05/05 17:40:39;;;;;;;0.10;0.10;;;;;;;-145.06;99.09;94299.81;10363021;28;20022;-76
2023/05/05 17:45:41;;;;;;;0.10;0.10;;;;;;;-145.06;100.00;94334.59;10348083;28;20026;-76
2023/05/05 17:50:41;;;;;;;0.08;0.08;;;;;;;-145.06;100.00;94353.00;10322495;28;20025;-76
2023/05/05 17:55:45;;;;;;;0.08;0.08;;;;;;;-145.06;100.00;94375.53;10361170;28;20022;-76
2023/05/05 18:00:46;;;;;;;0.10;0.10;;;;;;;-145.06;100.00;94459.41;10343601;28;20029;-76
2023/05/05 18:05:46;;;;;;;0.00;0.00;;;;;;;-145.06;100.00;94469.63;10329990;28;20031;-75
2023/05/05 18:10:46;;;;;;;0.10;0.10;;;;;;;-145.06;100.00;94483.94;10311816;28;20034;-75
2023/05/05 18:15:46;;;;;;;0.05;0.05;;;;;;;-145.06;100.00;94528.94;10309235;28;20054;-75
2023/05/05 18:20:47;;;;;;;0.10;0.10;;;;;;;-145.06;100.00;94535.09;10318489;28;20030;-75
2023/05/05 18:25:47;;;;;;;0.10;0.10;;;;;;;-145.06;100.00;94645.56;10323736;28;20022;-75
2023/05/05 18:30:47;;;;;;;0.10;0.10;;;;;;;-145.06;100.00;94598.50;10324195;28;20030;-74
2023/05/05 18:35:48;;;;;;;0.00;0.00;;;;;;;-145.06;100.00;94578.06;10322298;28;20077;-75
2023/05/05 18:40:48;;;;;;;0.00;0.00;;;;;;;-145.06;100.00;94533.03;10324244;28;20038;-75
2023/05/05 18:45:49;;;;;;;0.03;0.03;;;;;;;-145.06;100.00;94522.81;10325634;28;20054;-75
2023/05/05 18:50:50;;;;;;;0.00;0.00;;;;;;;-145.06;100.00;94543.28;10326410;28;20038;-75
2023/05/05 18:55:50;;;;;;;0.10;0.10;;;;;;;-145.06;100.00;94557.59;10331203;28;20023;-74
2023/05/05 19:00:51;;;;;;;0.03;0.03;;;;;;;-145.06;100.00;94471.66;10324734;28;20023;-75
2023/05/05 19:05:51;;;;;;;0.00;0.00;;;;;;;-145.06;100.00;94528.94;10326300;28;20041;-75
2023/05/05 19:10:51;;;;;;;0.10;0.10;;;;;;;-145.06;100.00;94492.13;10322708;28;20095;-75
2023/05/05 19:15:53;;;;;;;0.00;0.00;;;;;;;-145.06;100.00;94492.13;10325347;28;20022;-75
2023/05/05 19:20:53;;;;;;;0.00;0.00;;;;;;;-145.06;100.00;94528.94;10384948;22;20048;-74
2023/05/05 19:25:54;;;;;;;0.00;0.00;;;;;;;-145.06;100.00;94520.78;10364775;28;20485;-74
2023/05/05 19:30:54;;;;;;;0.10;0.10;;;;;;;-145.06;100.00;94543.28;10350344;28;20030;-74
2023/05/05 19:35:55;;;;;;;0.10;0.10;;;;;;;-145.06;100.00;94573.97;10351007;28;20443;-74
2023/05/05 19:40:55;;;;;;;0.00;0.00;;;;;;;-145.06;100.00;94543.28;10357128;28;20358;-73
2023/05/05 19:45:55;;;;;;;0.03;0.03;;;;;;;-145.06;100.00;94561.69;10353634;28;20023;-73
2023/05/05 19:50:56;;;;;;;0.03;0.03;;;;;;;-145.06;100.00;94571.91;10345392;28;20093;-74
2023/05/05 19:55:56;;;;;;;0.00;0.00;;;;;;;-145.06;100.00;94573.97;10335752;28;20093;-74
2023/05/05 20:00:57;;;;;;;0.10;0.10;;;;;;;-145.06;100.00;94623.06;10331934;28;20460;-74
2023/05/05 20:05:57;;;;;;;0.00;0.00;;;;;;;-145.06;100.00;94655.78;10346693;28;20034;-74
2023/05/05 20:10:57;;;;;;;0.00;0.00;;;;;;;-145.06;100.00;94692.63;10351751;28;20022;-74
2023/05/05 20:15:57;;;;;;;0.00;0.00;;;;;;;-145.06;100.00;94727.41;10332524;28;20025;-74
2023/05/05 20:20:58;;;;;;;0.00;0.00;;;;;;;-145.06;100.00;94721.25;10347788;28;20037;-75
2023/05/05 20:25:59;;;;;;;0.00;0.00;;;;;;;-145.06;100.00;94723.31;10351676;28;20030;-75
2023/05/05 20:30:59;;;;;;;0.00;0.00;;;;;;;-145.06;100.00;94721.25;10344267;28;20023;-74
2023/05/05 20:36:00;;;;;;;0.00;0.00;;;;;;;-145.06;100.00;94733.53;10339120;28;20489;-74
2023/05/05 20:41:00;;;;;;;0.00;0.00;;;;;;;-145.06;100.00;94751.94;10344754;28;20034;-74
2023/05/05 20:46:01;;;;;;;0.00;0.00;;;;;;;-145.06;100.00;94778.56;10351940;28;20026;-74
2023/05/05 20:51:03;;;;;;;0.00;0.00;;;;;;;-145.06;100.00;94776.50;10347199;28;20101;-74
2023/05/05 20:56:03;;;;;;;0.00;0.00;;;;;;;-145.06;100.00;94762.19;10341402;28;20056;-74
2023/05/05 21:01:03;;;;;;;0.00;0.00;;;;;;;-145.06;100.00;94782.66;10355656;28;20065;-74
2023/05/05 21:06:04;;;;;;;0.00;0.00;;;;;;;-145.06;100.00;94796.97;10355308;28;20039;-73
2023/05/05 21:11:08;;;;;;;0.00;0.00;;;;;;;-145.06;100.00;94841.97;10347467;28;20075;-73
2023/05/05 21:16:10;;;;;;;0.00;0.00;;;;;;;-145.06;100.00;94831.75;10359540;28;20018;-74
2023/05/05 21:21:10;;;;;;;0.00;0.00;;;;;;;-145.06;100.00;94803.09;10344816;28;20030;-73
2023/05/05 21:26:10;;;;;;;0.00;0.00;;;;;;;-145.06;100.00;94784.69;10344234;28;20034;-74
2023/05/05 21:31:11;;;;;;;0.00;0.00;;;;;;;-145.06;100.00;94850.16;10349694;28;20094;-73
2023/05/05 21:36:13;;;;;;;0.00;0.00;;;;;;;-145.06;100.00;94848.13;10347373;28;20019;-74
2023/05/05 21:41:14;;;;;;;0.00;0.00;;;;;;;-145.06;100.00;94796.97;10351288;28;20046;-74
2023/05/05 21:46:15;;;;;;;0.00;0.00;;;;;;;-145.06;100.00;94805.16;10346460;28;20457;-73
2023/05/05 21:51:16;;;;;;;0.00;0.00;;;;;;;-145.06;100.00;94805.16;10348618;28;20308;-74
2023/05/05 21:56:16;;;;;;;0.00;0.00;;;;;;;-145.06;100.00;94825.59;10346686;28;20052;-73
2023/05/05 22:01:16;;;;;;;0.00;0.00;;;;;;;-145.06;100.00;94794.91;10345720;28;20022;-74
2023/05/05 22:06:19;;;;;;;0.00;0.00;;;;;;;-145.06;100.00;94831.75;10344033;28;20382;-74
2023/05/05 22:11:19;;;;;;;0.00;0.00;;;;;;;-145.06;100.00;94807.19;10338865;28;20029;-74
2023/05/05 22:16:19;;;;;;;0.00;0.00;;;;;;;-145.06;100.00;94831.75;10344958;28;20019;-74
2023/05/05 22:21:20;;;;;;;0.10;0.10;;;;;;;-145.06;100.00;94868.56;10345984;28;20069;-74
2023/05/05 22:26:21;;;;;;;0.00;0.00;;;;;;;-145.06;100.00;94891.06;10327472;28;20106;-74
2023/05/05 22:31:21;;;;;;;0.00;0.00;;;;;;;-145.06;100.00;94905.41;10342135;28;20125;-74
2023/05/05 22:36:21;;;;;;;0.05;0.05;;;;;;;-145.06;100.00;94921.78;10336756;28;20018;-74
2023/05/05 22:41:22;;;;;;;0.00;0.00;;;;;;;-145.06;100.00;94966.78;10339571;28;20523;-73
2023/05/05 22:46:22;;;;;;;0.00;0.00;;;;;;;-145.06;100.00;94958.59;10350314;28;20014;-75
2023/05/05 22:51:22;;;;;;;0.00;0.00;;;;;;;-145.06;100.00;94962.69;10341833;28;20092;-74